Arlesey, United Kingdom
Current Conditions -  °F | °C
As of 3:50 AM on Saturday 25 Oct 2014 (Local Time) from EGGW Reporting Station
Clear Clear  
Wind Chill: 41°   Ceiling: Unl
Heat Index: 45°   Visibility: 6mi
Dew Point: 45°   Wind: 6mph
Humidity: 100%   Direction: 240°WSW
Pressure: 29.97"   Gusts: NA
Location:  52.01°N, 0.27°W
Report Text: EGGW 250250Z 24005KT CAVOK 07/07 Q1015
Loading
Personal Weather Stations






























Interactive Weather Map
Tropical Storm Tracking
New forecast layout! Learn more

10-Day Weather Forecast

Advertisements
Track Severe Weather on mobile